Hovedside
METAR-TAF:

METAR-TAF

Lufthavner :

Koror, Babeldaob, Palau

Roman Tmetuchl internasjonale lufthavn

breddegrad: 07-22N, lengdegrad: 134-32E, høyde over havet: 54 m

Gjeldene værobservasjon

Denne rapporten ble laget for 1 time og 11 minutter siden, klokken 05:50 UTC
Vind 4 kt fra Sørøst
Temperatur 29°C
Luftfuktighet 70%
Trykk 1006 hPa
Sikt: 24.1 km
Få skyer i en høyde av 1000 ft
Spredte skyer i en høyde av 1600 ft
Brutte skyer i en høyde av 12000 ft
Brutte skyer i en høyde av 30000 ft

METAR: PTRO 250550Z 14004KT 15SM FEW010 SCT016 BKN120 BKN300 29/23 A2972

Tid: 16:01 (07:01 UTC)

Varsel

Denne rapporten ble laget for 1 time og 34 minutter siden, klokken 05:27 UTC
Varsel gyldig fra 25. klokken 06 UTC til 26. klokken 06 UTC
Vind 6 kt fra skiftende retning
Sikt: 10 km
Spredte skyer i en høyde av 1600 ft
regnbyger i nærheten

TAF: PTRO 250527Z 2506/2606 VRB06KT P6SM VCSH SCT016

Værobservasjoner og værvarsel for over 4000 flyplasser (METAR- og TAF-rapporter).

Tilgjengelige stasjoner er representert av de røde og gule prikkene på kartet.

Hold musepekeren over prikken for å se navnet på stasjonen.

Klikk så for å se værobservasjoner og -varsler.

For å forandre kartet kan du klikke på den grønne knappen med svart kryss for å zoome inn, på den grønne knappen med strek for å zoome ut, eller på de grønne pilene for å se tilstøtende kart.


METAR-TAF: